sensor_id;sensor_type;location;lat;lon;timestamp;temperature;humidity
15286;DHT22;7744;52.172;10.668;2022-10-16T00:01:36;14.00;99.90
15286;DHT22;7744;52.172;10.668;2022-10-16T00:04:03;13.90;99.90
15286;DHT22;7744;52.172;10.668;2022-10-16T00:06:30;13.90;99.90
15286;DHT22;7744;52.172;10.668;2022-10-16T00:08:56;13.70;99.90
15286;DHT22;7744;52.172;10.668;2022-10-16T00:11:24;13.70;99.90
15286;DHT22;7744;52.172;10.668;2022-10-16T00:13:51;13.70;1.00
15286;DHT22;7744;52.172;10.668;2022-10-16T00:16:19;13.60;1.00
15286;DHT22;7744;52.172;10.668;2022-10-16T00:18:45;13.60;1.00
15286;DHT22;7744;52.172;10.668;2022-10-16T00:21:16;13.50;1.00
15286;DHT22;7744;52.172;10.668;2022-10-16T00:23:42;13.50;1.00
15286;DHT22;7744;52.172;10.668;2022-10-16T00:26:13;13.50;1.00
15286;DHT22;7744;52.172;10.668;2022-10-16T00:28:40;13.40;1.00
15286;DHT22;7744;52.172;10.668;2022-10-16T00:31:10;13.40;1.00
15286;DHT22;7744;52.172;10.668;2022-10-16T00:33:38;13.40;1.00
15286;DHT22;7744;52.172;10.668;2022-10-16T00:36:06;13.40;1.00
15286;DHT22;7744;52.172;10.668;2022-10-16T00:38:32;13.40;1.00
15286;DHT22;7744;52.172;10.668;2022-10-16T00:40:58;13.40;1.00
15286;DHT22;7744;52.172;10.668;2022-10-16T00:43:42;13.40;1.00
15286;DHT22;7744;52.172;10.668;2022-10-16T00:46:24;13.30;1.00
15286;DHT22;7744;52.172;10.668;2022-10-16T00:51:25;13.20;1.00
15286;DHT22;7744;52.172;10.668;2022-10-16T00:53:53;13.20;1.00
15286;DHT22;7744;52.172;10.668;2022-10-16T00:56:19;13.20;1.00
15286;DHT22;7744;52.172;10.668;2022-10-16T00:58:45;13.10;1.00
15286;DHT22;7744;52.172;10.668;2022-10-16T01:01:11;13.10;1.00
15286;DHT22;7744;52.172;10.668;2022-10-16T01:03:37;13.10;1.00
15286;DHT22;7744;52.172;10.668;2022-10-16T01:08:37;13.00;1.00
15286;DHT22;7744;52.172;10.668;2022-10-16T01:11:19;13.00;1.00
15286;DHT22;7744;52.172;10.668;2022-10-16T01:13:55;12.90;1.00
15286;DHT22;7744;52.172;10.668;2022-10-16T01:16:38;12.90;1.00
15286;DHT22;7744;52.172;10.668;2022-10-16T01:19:16;12.80;1.00
15286;DHT22;7744;52.172;10.668;2022-10-16T01:21:46;12.90;16.20
15286;DHT22;7744;52.172;10.668;2022-10-16T01:27:11;12.90;85.80
15286;DHT22;7744;52.172;10.668;2022-10-16T01:32:50;12.90;96.70
15286;DHT22;7744;52.172;10.668;2022-10-16T01:38:16;12.90;1.00
15286;DHT22;7744;52.172;10.668;2022-10-16T01:40:46;12.90;1.00
15286;DHT22;7744;52.172;10.668;2022-10-16T01:43:21;12.80;1.00
15286;DHT22;7744;52.172;10.668;2022-10-16T01:45:48;12.80;1.00
15286;DHT22;7744;52.172;10.668;2022-10-16T01:48:17;12.80;1.00
15286;DHT22;7744;52.172;10.668;2022-10-16T01:50:47;12.80;1.00
15286;DHT22;7744;52.172;10.668;2022-10-16T01:53:15;12.80;1.00
15286;DHT22;7744;52.172;10.668;2022-10-16T01:55:44;12.80;1.00
15286;DHT22;7744;52.172;10.668;2022-10-16T01:58:13;12.80;1.00
15286;DHT22;7744;52.172;10.668;2022-10-16T02:00:42;12.80;1.00
15286;DHT22;7744;52.172;10.668;2022-10-16T02:03:09;12.90;1.00
15286;DHT22;7744;52.172;10.668;2022-10-16T02:05:56;12.90;1.00
15286;DHT22;7744;52.172;10.668;2022-10-16T02:08:24;12.90;1.00
15286;DHT22;7744;52.172;10.668;2022-10-16T02:10:51;12.90;1.00
15286;DHT22;7744;52.172;10.668;2022-10-16T02:13:28;12.80;1.00
15286;DHT22;7744;52.172;10.668;2022-10-16T02:15:55;12.90;1.00
15286;DHT22;7744;52.172;10.668;2022-10-16T02:18:21;12.90;1.00
15286;DHT22;7744;52.172;10.668;2022-10-16T02:21:01;13.00;1.00
15286;DHT22;7744;52.172;10.668;2022-10-16T02:26:13;13.00;1.00
15286;DHT22;7744;52.172;10.668;2022-10-16T02:28:45;13.00;1.00
15286;DHT22;7744;52.172;10.668;2022-10-16T02:31:14;13.10;1.00
15286;DHT22;7744;52.172;10.668;2022-10-16T02:33:42;13.00;1.00
15286;DHT22;7744;52.172;10.668;2022-10-16T02:36:08;13.10;1.00
15286;DHT22;7744;52.172;10.668;2022-10-16T02:38:34;13.30;1.00
15286;DHT22;7744;52.172;10.668;2022-10-16T02:41:01;13.40;1.00
15286;DHT22;7744;52.172;10.668;2022-10-16T02:43:27;13.50;1.00
15286;DHT22;7744;52.172;10.668;2022-10-16T02:45:52;13.60;99.90
15286;DHT22;7744;52.172;10.668;2022-10-16T02:48:18;13.70;99.90
15286;DHT22;7744;52.172;10.668;2022-10-16T02:50:44;13.70;99.90
15286;DHT22;7744;52.172;10.668;2022-10-16T02:53:09;13.80;99.90
15286;DHT22;7744;52.172;10.668;2022-10-16T02:55:35;13.80;99.90
15286;DHT22;7744;52.172;10.668;2022-10-16T02:58:00;13.90;99.90
15286;DHT22;7744;52.172;10.668;2022-10-16T03:00:29;13.90;99.90
15286;DHT22;7744;52.172;10.668;2022-10-16T03:02:54;14.00;99.90
15286;DHT22;7744;52.172;10.668;2022-10-16T03:05:20;14.00;99.90
15286;DHT22;7744;52.172;10.668;2022-10-16T03:07:46;14.00;99.90
15286;DHT22;7744;52.172;10.668;2022-10-16T03:10:11;14.00;99.90
15286;DHT22;7744;52.172;10.668;2022-10-16T03:12:37;14.00;99.90
15286;DHT22;7744;52.172;10.668;2022-10-16T03:15:03;14.00;99.90
15286;DHT22;7744;52.172;10.668;2022-10-16T03:17:29;14.00;99.90
15286;DHT22;7744;52.172;10.668;2022-10-16T03:19:54;13.90;99.90
15286;DHT22;7744;52.172;10.668;2022-10-16T03:22:20;13.90;99.90
15286;DHT22;7744;52.172;10.668;2022-10-16T03:24:45;13.70;99.90
15286;DHT22;7744;52.172;10.668;2022-10-16T03:27:11;13.70;99.90
15286;DHT22;7744;52.172;10.668;2022-10-16T03:29:37;13.60;99.90
15286;DHT22;7744;52.172;10.668;2022-10-16T03:32:02;13.50;99.90
15286;DHT22;7744;52.172;10.668;2022-10-16T03:34:28;13.30;99.90
15286;DHT22;7744;52.172;10.668;2022-10-16T03:36:53;13.20;99.90
15286;DHT22;7744;52.172;10.668;2022-10-16T03:39:19;13.20;99.90
15286;DHT22;7744;52.172;10.668;2022-10-16T03:41:45;13.10;99.90
15286;DHT22;7744;52.172;10.668;2022-10-16T03:44:12;13.00;99.90
15286;DHT22;7744;52.172;10.668;2022-10-16T03:46:37;13.00;99.90
15286;DHT22;7744;52.172;10.668;2022-10-16T03:49:03;12.90;99.90
15286;DHT22;7744;52.172;10.668;2022-10-16T03:51:28;12.80;99.90
15286;DHT22;7744;52.172;10.668;2022-10-16T03:53:54;12.80;99.90
15286;DHT22;7744;52.172;10.668;2022-10-16T03:56:19;12.70;99.90
15286;DHT22;7744;52.172;10.668;2022-10-16T03:58:45;12.70;1.00
15286;DHT22;7744;52.172;10.668;2022-10-16T04:01:11;12.70;1.00
15286;DHT22;7744;52.172;10.668;2022-10-16T04:03:36;12.70;1.00
15286;DHT22;7744;52.172;10.668;2022-10-16T04:06:02;12.60;1.00
15286;DHT22;7744;52.172;10.668;2022-10-16T04:08:28;12.60;1.00
15286;DHT22;7744;52.172;10.668;2022-10-16T04:10:53;12.50;1.00
15286;DHT22;7744;52.172;10.668;2022-10-16T04:13:19;12.40;1.00
15286;DHT22;7744;52.172;10.668;2022-10-16T04:15:45;12.30;1.00
15286;DHT22;7744;52.172;10.668;2022-10-16T04:18:10;12.30;1.00
15286;DHT22;7744;52.172;10.668;2022-10-16T04:20:36;12.10;1.00
15286;DHT22;7744;52.172;10.668;2022-10-16T04:23:02;12.40;1.00
15286;DHT22;7744;52.172;10.668;2022-10-16T04:25:28;12.10;11.70
15286;DHT22;7744;52.172;10.668;2022-10-16T04:27:54;12.00;55.20
15286;DHT22;7744;52.172;10.668;2022-10-16T04:30:21;12.40;99.90
15286;DHT22;7744;52.172;10.668;2022-10-16T04:32:50;12.00;99.90
15286;DHT22;7744;52.172;10.668;2022-10-16T04:35:17;11.90;99.90
15286;DHT22;7744;52.172;10.668;2022-10-16T04:37:43;11.80;99.90
15286;DHT22;7744;52.172;10.668;2022-10-16T04:40:09;11.90;99.90
15286;DHT22;7744;52.172;10.668;2022-10-16T04:42:35;11.90;99.90
15286;DHT22;7744;52.172;10.668;2022-10-16T04:45:00;11.90;1.00
15286;DHT22;7744;52.172;10.668;2022-10-16T04:47:26;11.80;1.00
15286;DHT22;7744;52.172;10.668;2022-10-16T04:49:51;11.90;1.00
15286;DHT22;7744;52.172;10.668;2022-10-16T04:52:17;12.00;18.20
15286;DHT22;7744;52.172;10.668;2022-10-16T04:54:44;12.00;1.00
15286;DHT22;7744;52.172;10.668;2022-10-16T04:57:11;12.00;99.90
15286;DHT22;7744;52.172;10.668;2022-10-16T04:59:36;12.00;99.90
15286;DHT22;7744;52.172;10.668;2022-10-16T05:02:02;12.00;99.90
15286;DHT22;7744;52.172;10.668;2022-10-16T05:04:28;12.00;99.90
15286;DHT22;7744;52.172;10.668;2022-10-16T05:06:54;12.10;99.90
15286;DHT22;7744;52.172;10.668;2022-10-16T05:09:19;12.10;49.50
15286;DHT22;7744;52.172;10.668;2022-10-16T05:11:45;11.90;99.90
15286;DHT22;7744;52.172;10.668;2022-10-16T05:14:11;11.90;99.90
15286;DHT22;7744;52.172;10.668;2022-10-16T05:16:37;12.00;99.90
15286;DHT22;7744;52.172;10.668;2022-10-16T05:19:02;11.90;1.00
15286;DHT22;7744;52.172;10.668;2022-10-16T05:21:28;11.90;1.00
15286;DHT22;7744;52.172;10.668;2022-10-16T05:23:54;11.90;1.00
15286;DHT22;7744;52.172;10.668;2022-10-16T05:26:20;11.90;1.00
15286;DHT22;7744;52.172;10.668;2022-10-16T05:28:46;11.90;1.00
15286;DHT22;7744;52.172;10.668;2022-10-16T05:31:12;11.90;1.00
15286;DHT22;7744;52.172;10.668;2022-10-16T05:33:37;11.90;1.00
15286;DHT22;7744;52.172;10.668;2022-10-16T05:36:05;11.90;1.00
15286;DHT22;7744;52.172;10.668;2022-10-16T05:38:33;11.90;1.00
15286;DHT22;7744;52.172;10.668;2022-10-16T05:40:59;12.00;99.90
15286;DHT22;7744;52.172;10.668;2022-10-16T05:43:26;12.00;99.90
15286;DHT22;7744;52.172;10.668;2022-10-16T05:46:04;12.10;99.90
15286;DHT22;7744;52.172;10.668;2022-10-16T05:48:30;12.00;99.90
15286;DHT22;7744;52.172;10.668;2022-10-16T05:50:58;12.10;25.60
15286;DHT22;7744;52.172;10.668;2022-10-16T05:53:24;12.10;1.00
15286;DHT22;7744;52.172;10.668;2022-10-16T05:55:54;12.10;1.00
15286;DHT22;7744;52.172;10.668;2022-10-16T05:58:21;12.10;1.00
15286;DHT22;7744;52.172;10.668;2022-10-16T06:00:57;12.10;1.00
15286;DHT22;7744;52.172;10.668;2022-10-16T06:03:23;12.10;99.90
15286;DHT22;7744;52.172;10.668;2022-10-16T06:05:49;12.20;99.90
15286;DHT22;7744;52.172;10.668;2022-10-16T06:08:15;12.10;99.90
15286;DHT22;7744;52.172;10.668;2022-10-16T06:10:41;12.10;99.90
15286;DHT22;7744;52.172;10.668;2022-10-16T06:13:07;12.10;99.90
15286;DHT22;7744;52.172;10.668;2022-10-16T06:15:33;12.10;99.90
15286;DHT22;7744;52.172;10.668;2022-10-16T06:17:58;12.10;99.90
15286;DHT22;7744;52.172;10.668;2022-10-16T06:20:24;12.10;99.90
15286;DHT22;7744;52.172;10.668;2022-10-16T06:22:49;12.10;99.90
15286;DHT22;7744;52.172;10.668;2022-10-16T06:25:15;12.10;99.90
15286;DHT22;7744;52.172;10.668;2022-10-16T06:27:41;12.10;99.90
15286;DHT22;7744;52.172;10.668;2022-10-16T06:30:07;12.20;99.90
15286;DHT22;7744;52.172;10.668;2022-10-16T06:32:33;12.30;99.90
15286;DHT22;7744;52.172;10.668;2022-10-16T06:34:58;12.30;99.90
15286;DHT22;7744;52.172;10.668;2022-10-16T06:37:24;12.40;99.90
15286;DHT22;7744;52.172;10.668;2022-10-16T06:39:50;12.40;99.90
15286;DHT22;7744;52.172;10.668;2022-10-16T06:42:18;12.40;84.40
15286;DHT22;7744;52.172;10.668;2022-10-16T06:44:43;12.50;1.00
15286;DHT22;7744;52.172;10.668;2022-10-16T06:47:09;12.50;1.00
15286;DHT22;7744;52.172;10.668;2022-10-16T06:49:35;12.50;1.00
15286;DHT22;7744;52.172;10.668;2022-10-16T06:52:01;12.60;1.00
15286;DHT22;7744;52.172;10.668;2022-10-16T06:54:27;12.60;1.00
15286;DHT22;7744;52.172;10.668;2022-10-16T06:56:53;12.70;1.00
15286;DHT22;7744;52.172;10.668;2022-10-16T06:59:20;12.80;1.00
15286;DHT22;7744;52.172;10.668;2022-10-16T07:01:46;12.80;1.00
15286;DHT22;7744;52.172;10.668;2022-10-16T07:04:13;12.80;1.00
15286;DHT22;7744;52.172;10.668;2022-10-16T07:06:39;12.70;1.00
15286;DHT22;7744;52.172;10.668;2022-10-16T07:09:06;12.70;1.00
15286;DHT22;7744;52.172;10.668;2022-10-16T07:11:34;12.60;1.00
15286;DHT22;7744;52.172;10.668;2022-10-16T07:14:00;12.50;1.00
15286;DHT22;7744;52.172;10.668;2022-10-16T07:16:28;12.50;1.00
15286;DHT22;7744;52.172;10.668;2022-10-16T07:18:54;12.50;1.00
15286;DHT22;7744;52.172;10.668;2022-10-16T07:21:25;12.60;1.00
15286;DHT22;7744;52.172;10.668;2022-10-16T07:23:59;12.60;1.00
15286;DHT22;7744;52.172;10.668;2022-10-16T07:26:28;12.60;1.00
15286;DHT22;7744;52.172;10.668;2022-10-16T07:28:54;12.50;1.00
15286;DHT22;7744;52.172;10.668;2022-10-16T07:31:20;12.60;1.00
15286;DHT22;7744;52.172;10.668;2022-10-16T07:33:47;12.60;1.00
15286;DHT22;7744;52.172;10.668;2022-10-16T07:36:15;12.80;1.00
15286;DHT22;7744;52.172;10.668;2022-10-16T07:38:41;13.00;72.30
15286;DHT22;7744;52.172;10.668;2022-10-16T07:41:11;13.20;1.00
15286;DHT22;7744;52.172;10.668;2022-10-16T07:43:37;13.50;1.00
15286;DHT22;7744;52.172;10.668;2022-10-16T07:46:03;13.70;1.00
15286;DHT22;7744;52.172;10.668;2022-10-16T07:48:31;13.90;99.90
15286;DHT22;7744;52.172;10.668;2022-10-16T07:51:05;14.30;99.90
15286;DHT22;7744;52.172;10.668;2022-10-16T07:53:31;14.40;99.90
15286;DHT22;7744;52.172;10.668;2022-10-16T07:55:58;14.50;99.90
15286;DHT22;7744;52.172;10.668;2022-10-16T07:58:25;14.60;99.90
15286;DHT22;7744;52.172;10.668;2022-10-16T08:00:50;14.70;99.90
15286;DHT22;7744;52.172;10.668;2022-10-16T08:03:16;14.90;99.90
15286;DHT22;7744;52.172;10.668;2022-10-16T08:05:41;15.00;90.20
15286;DHT22;7744;52.172;10.668;2022-10-16T08:08:12;15.10;81.30
15286;DHT22;7744;52.172;10.668;2022-10-16T08:10:38;15.20;23.80
15286;DHT22;7744;52.172;10.668;2022-10-16T08:13:03;15.30;23.10
15286;DHT22;7744;52.172;10.668;2022-10-16T08:15:29;15.30;11.00
15286;DHT22;7744;52.172;10.668;2022-10-16T08:18:00;15.40;2.90
15286;DHT22;7744;52.172;10.668;2022-10-16T08:20:27;15.60;1.00
15286;DHT22;7744;52.172;10.668;2022-10-16T08:22:54;15.70;1.00
15286;DHT22;7744;52.172;10.668;2022-10-16T08:25:21;15.90;1.00
15286;DHT22;7744;52.172;10.668;2022-10-16T08:27:47;15.90;1.00
15286;DHT22;7744;52.172;10.668;2022-10-16T08:30:13;15.70;1.00
15286;DHT22;7744;52.172;10.668;2022-10-16T08:32:39;15.50;1.00
15286;DHT22;7744;52.172;10.668;2022-10-16T08:35:05;15.40;1.00
15286;DHT22;7744;52.172;10.668;2022-10-16T08:37:31;15.50;1.00
15286;DHT22;7744;52.172;10.668;2022-10-16T08:39:57;15.70;1.00
15286;DHT22;7744;52.172;10.668;2022-10-16T08:45:09;16.00;1.00
15286;DHT22;7744;52.172;10.668;2022-10-16T08:50:15;16.00;1.00
15286;DHT22;7744;52.172;10.668;2022-10-16T08:52:44;16.10;1.00
15286;DHT22;7744;52.172;10.668;2022-10-16T08:55:28;16.40;1.00
15286;DHT22;7744;52.172;10.668;2022-10-16T08:57:55;16.60;1.00
15286;DHT22;7744;52.172;10.668;2022-10-16T09:00:21;16.50;1.00
15286;DHT22;7744;52.172;10.668;2022-10-16T09:02:55;16.50;1.00
15286;DHT22;7744;52.172;10.668;2022-10-16T09:05:38;16.40;1.00
15286;DHT22;7744;52.172;10.668;2022-10-16T09:16:57;16.30;1.00
15286;DHT22;7744;52.172;10.668;2022-10-16T09:19:46;16.20;1.00
15286;DHT22;7744;52.172;10.668;2022-10-16T09:22:15;16.10;1.00
15286;DHT22;7744;52.172;10.668;2022-10-16T09:24:42;16.10;1.00
15286;DHT22;7744;52.172;10.668;2022-10-16T09:27:12;16.10;1.00
15286;DHT22;7744;52.172;10.668;2022-10-16T09:29:38;16.10;1.00
15286;DHT22;7744;52.172;10.668;2022-10-16T09:32:22;16.10;1.00
15286;DHT22;7744;52.172;10.668;2022-10-16T09:34:51;16.10;1.00
15286;DHT22;7744;52.172;10.668;2022-10-16T09:37:20;16.00;1.00
15286;DHT22;7744;52.172;10.668;2022-10-16T09:39:53;16.00;1.00
15286;DHT22;7744;52.172;10.668;2022-10-16T09:42:23;16.10;1.00
15286;DHT22;7744;52.172;10.668;2022-10-16T09:44:53;16.20;1.00
15286;DHT22;7744;52.172;10.668;2022-10-16T09:47:23;16.10;1.00
15286;DHT22;7744;52.172;10.668;2022-10-16T09:50:00;16.10;1.00
15286;DHT22;7744;52.172;10.668;2022-10-16T09:52:31;16.10;1.00
15286;DHT22;7744;52.172;10.668;2022-10-16T09:54:59;16.00;1.00
15286;DHT22;7744;52.172;10.668;2022-10-16T09:57:25;16.00;1.00
15286;DHT22;7744;52.172;10.668;2022-10-16T09:59:56;16.00;1.00
15286;DHT22;7744;52.172;10.668;2022-10-16T10:02:35;16.10;1.00
15286;DHT22;7744;52.172;10.668;2022-10-16T10:05:04;16.10;1.00
15286;DHT22;7744;52.172;10.668;2022-10-16T10:07:33;16.10;1.00
15286;DHT22;7744;52.172;10.668;2022-10-16T10:10:00;16.10;1.00
15286;DHT22;7744;52.172;10.668;2022-10-16T10:12:33;16.10;1.00
15286;DHT22;7744;52.172;10.668;2022-10-16T10:15:10;16.20;1.00
15286;DHT22;7744;52.172;10.668;2022-10-16T10:17:52;16.30;1.00
15286;DHT22;7744;52.172;10.668;2022-10-16T10:22:52;16.50;1.00
15286;DHT22;7744;52.172;10.668;2022-10-16T10:28:28;16.70;1.00
15286;DHT22;7744;52.172;10.668;2022-10-16T10:31:04;16.80;1.00
15286;DHT22;7744;52.172;10.668;2022-10-16T10:34:02;16.90;1.00
15286;DHT22;7744;52.172;10.668;2022-10-16T10:36:39;16.90;1.00
15286;DHT22;7744;52.172;10.668;2022-10-16T10:47:47;17.40;1.00
15286;DHT22;7744;52.172;10.668;2022-10-16T10:50:27;17.30;1.00
15286;DHT22;7744;52.172;10.668;2022-10-16T10:56:05;17.60;1.00
15286;DHT22;7744;52.172;10.668;2022-10-16T11:01:18;17.80;1.00
15286;DHT22;7744;52.172;10.668;2022-10-16T11:06:59;17.70;1.00
15286;DHT22;7744;52.172;10.668;2022-10-16T11:09:37;17.60;1.00
15286;DHT22;7744;52.172;10.668;2022-10-16T11:12:37;17.60;1.00
15286;DHT22;7744;52.172;10.668;2022-10-16T11:15:18;17.70;1.00
15286;DHT22;7744;52.172;10.668;2022-10-16T11:19:03;17.80;1.00
15286;DHT22;7744;52.172;10.668;2022-10-16T11:21:02;18.00;1.00
15286;DHT22;7744;52.172;10.668;2022-10-16T11:26:23;18.30;1.00
15286;DHT22;7744;52.172;10.668;2022-10-16T11:28:51;18.40;1.00
15286;DHT22;7744;52.172;10.668;2022-10-16T11:31:41;18.50;1.00
15286;DHT22;7744;52.172;10.668;2022-10-16T11:37:08;18.80;1.00
15286;DHT22;7744;52.172;10.668;2022-10-16T11:39:37;18.80;1.00
15286;DHT22;7744;52.172;10.668;2022-10-16T11:44:43;18.60;1.00
15286;DHT22;7744;52.172;10.668;2022-10-16T11:47:38;18.50;1.00
15286;DHT22;7744;52.172;10.668;2022-10-16T11:50:24;18.50;1.00
15286;DHT22;7744;52.172;10.668;2022-10-16T11:55:20;18.40;1.00
15286;DHT22;7744;52.172;10.668;2022-10-16T11:57:59;18.30;1.00
15286;DHT22;7744;52.172;10.668;2022-10-16T12:00:38;18.30;1.00
15286;DHT22;7744;52.172;10.668;2022-10-16T12:03:15;18.20;1.00
15286;DHT22;7744;52.172;10.668;2022-10-16T12:08:20;18.00;1.00
15286;DHT22;7744;52.172;10.668;2022-10-16T12:10:47;18.40;1.00
15286;DHT22;7744;52.172;10.668;2022-10-16T12:13:33;18.10;1.00
15286;DHT22;7744;52.172;10.668;2022-10-16T12:18:43;18.20;1.00
15286;DHT22;7744;52.172;10.668;2022-10-16T12:21:10;18.20;1.00
15286;DHT22;7744;52.172;10.668;2022-10-16T12:23:50;18.40;1.00
15286;DHT22;7744;52.172;10.668;2022-10-16T12:26:25;18.40;1.00
15286;DHT22;7744;52.172;10.668;2022-10-16T12:28:51;18.30;1.00
15286;DHT22;7744;52.172;10.668;2022-10-16T12:31:17;18.40;1.00
15286;DHT22;7744;52.172;10.668;2022-10-16T12:34:01;18.30;1.00
15286;DHT22;7744;52.172;10.668;2022-10-16T12:36:30;18.30;1.00
15286;DHT22;7744;52.172;10.668;2022-10-16T12:38:56;18.30;1.00
15286;DHT22;7744;52.172;10.668;2022-10-16T12:43:57;18.40;1.00
15286;DHT22;7744;52.172;10.668;2022-10-16T12:46:35;18.40;1.00
15286;DHT22;7744;52.172;10.668;2022-10-16T12:49:29;18.20;1.00
15286;DHT22;7744;52.172;10.668;2022-10-16T12:52:04;18.30;1.00
15286;DHT22;7744;52.172;10.668;2022-10-16T12:54:35;18.60;1.00
15286;DHT22;7744;52.172;10.668;2022-10-16T12:57:27;18.60;1.00
15286;DHT22;7744;52.172;10.668;2022-10-16T13:09:02;18.60;1.00
15286;DHT22;7744;52.172;10.668;2022-10-16T13:11:54;18.40;1.00
15286;DHT22;7744;52.172;10.668;2022-10-16T13:20:38;18.40;1.00
15286;DHT22;7744;52.172;10.668;2022-10-16T13:23:20;18.40;1.00
15286;DHT22;7744;52.172;10.668;2022-10-16T13:26:12;18.40;1.00
15286;DHT22;7744;52.172;10.668;2022-10-16T13:28:42;18.40;1.00
15286;DHT22;7744;52.172;10.668;2022-10-16T13:31:19;18.40;1.00
15286;DHT22;7744;52.172;10.668;2022-10-16T13:33:47;18.40;1.00
15286;DHT22;7744;52.172;10.668;2022-10-16T13:36:22;18.50;1.00
15286;DHT22;7744;52.172;10.668;2022-10-16T13:38:48;18.60;1.00
15286;DHT22;7744;52.172;10.668;2022-10-16T13:41:16;18.60;1.00
15286;DHT22;7744;52.172;10.668;2022-10-16T13:43:51;18.60;1.00
15286;DHT22;7744;52.172;10.668;2022-10-16T13:46:20;18.50;1.00
15286;DHT22;7744;52.172;10.668;2022-10-16T13:49:03;18.50;1.00
15286;DHT22;7744;52.172;10.668;2022-10-16T13:51:30;18.50;1.00
15286;DHT22;7744;52.172;10.668;2022-10-16T13:53:56;18.50;1.00
15286;DHT22;7744;52.172;10.668;2022-10-16T13:56:25;18.50;1.00
15286;DHT22;7744;52.172;10.668;2022-10-16T13:59:04;18.60;1.00
15286;DHT22;7744;52.172;10.668;2022-10-16T14:01:42;18.50;1.00
15286;DHT22;7744;52.172;10.668;2022-10-16T14:04:10;18.50;1.00
15286;DHT22;7744;52.172;10.668;2022-10-16T14:06:41;18.40;1.00
15286;DHT22;7744;52.172;10.668;2022-10-16T14:09:26;18.40;1.00
15286;DHT22;7744;52.172;10.668;2022-10-16T14:12:06;18.40;1.00
15286;DHT22;7744;52.172;10.668;2022-10-16T14:14:48;18.30;1.00
15286;DHT22;7744;52.172;10.668;2022-10-16T14:17:18;18.20;1.00
15286;DHT22;7744;52.172;10.668;2022-10-16T14:19:49;18.20;1.00
15286;DHT22;7744;52.172;10.668;2022-10-16T14:22:35;18.30;1.00
15286;DHT22;7744;52.172;10.668;2022-10-16T14:25:16;18.30;1.00
15286;DHT22;7744;52.172;10.668;2022-10-16T14:30:28;18.20;1.00
15286;DHT22;7744;52.172;10.668;2022-10-16T14:32:59;18.20;1.00
15286;DHT22;7744;52.172;10.668;2022-10-16T14:35:33;18.20;1.00
15286;DHT22;7744;52.172;10.668;2022-10-16T14:38:01;18.00;1.00
15286;DHT22;7744;52.172;10.668;2022-10-16T14:40:30;18.00;1.00
15286;DHT22;7744;52.172;10.668;2022-10-16T14:42:56;18.00;1.00
15286;DHT22;7744;52.172;10.668;2022-10-16T14:45:26;18.00;1.00
15286;DHT22;7744;52.172;10.668;2022-10-16T14:47:54;17.90;1.00
15286;DHT22;7744;52.172;10.668;2022-10-16T14:50:21;17.90;1.00
15286;DHT22;7744;52.172;10.668;2022-10-16T14:52:47;17.90;1.00
15286;DHT22;7744;52.172;10.668;2022-10-16T14:55:13;17.90;1.00
15286;DHT22;7744;52.172;10.668;2022-10-16T14:57:40;17.80;1.00
15286;DHT22;7744;52.172;10.668;2022-10-16T15:00:21;17.70;1.00
15286;DHT22;7744;52.172;10.668;2022-10-16T15:02:48;17.70;1.00
15286;DHT22;7744;52.172;10.668;2022-10-16T15:05:25;17.70;1.00
15286;DHT22;7744;52.172;10.668;2022-10-16T15:07:52;17.60;1.00
15286;DHT22;7744;52.172;10.668;2022-10-16T15:10:20;17.60;1.00
15286;DHT22;7744;52.172;10.668;2022-10-16T15:12:46;17.50;1.00
15286;DHT22;7744;52.172;10.668;2022-10-16T15:18:00;17.40;1.00
15286;DHT22;7744;52.172;10.668;2022-10-16T15:20:36;17.40;1.00
15286;DHT22;7744;52.172;10.668;2022-10-16T15:23:04;17.30;1.00
15286;DHT22;7744;52.172;10.668;2022-10-16T15:25:39;17.30;1.00
15286;DHT22;7744;52.172;10.668;2022-10-16T15:28:07;17.20;1.00
15286;DHT22;7744;52.172;10.668;2022-10-16T15:30:33;17.10;1.00
15286;DHT22;7744;52.172;10.668;2022-10-16T15:32:59;17.00;1.00
15286;DHT22;7744;52.172;10.668;2022-10-16T15:35:25;16.90;1.00
15286;DHT22;7744;52.172;10.668;2022-10-16T15:37:51;16.80;1.00
15286;DHT22;7744;52.172;10.668;2022-10-16T15:40:18;16.80;1.00
15286;DHT22;7744;52.172;10.668;2022-10-16T15:42:45;16.60;1.00
15286;DHT22;7744;52.172;10.668;2022-10-16T15:45:11;16.60;1.00
15286;DHT22;7744;52.172;10.668;2022-10-16T15:47:37;16.50;1.00
15286;DHT22;7744;52.172;10.668;2022-10-16T15:50:03;16.40;1.00
15286;DHT22;7744;52.172;10.668;2022-10-16T15:52:29;16.40;1.00
15286;DHT22;7744;52.172;10.668;2022-10-16T15:54:57;16.20;1.00
15286;DHT22;7744;52.172;10.668;2022-10-16T15:57:23;16.10;1.00
15286;DHT22;7744;52.172;10.668;2022-10-16T15:59:49;15.90;1.00
15286;DHT22;7744;52.172;10.668;2022-10-16T16:02:15;15.80;1.00
15286;DHT22;7744;52.172;10.668;2022-10-16T16:04:40;15.70;1.00
15286;DHT22;7744;52.172;10.668;2022-10-16T16:07:06;15.50;1.00
15286;DHT22;7744;52.172;10.668;2022-10-16T16:09:35;15.40;1.00
15286;DHT22;7744;52.172;10.668;2022-10-16T16:12:00;15.30;1.00
15286;DHT22;7744;52.172;10.668;2022-10-16T16:14:27;15.20;1.00
15286;DHT22;7744;52.172;10.668;2022-10-16T16:16:55;15.10;1.00
15286;DHT22;7744;52.172;10.668;2022-10-16T16:19:21;15.10;1.00
15286;DHT22;7744;52.172;10.668;2022-10-16T16:21:50;15.10;1.00
15286;DHT22;7744;52.172;10.668;2022-10-16T16:24:16;15.10;1.00
15286;DHT22;7744;52.172;10.668;2022-10-16T16:26:42;15.00;1.00
15286;DHT22;7744;52.172;10.668;2022-10-16T16:29:13;14.90;1.00
15286;DHT22;7744;52.172;10.668;2022-10-16T16:31:40;14.80;1.00
15286;DHT22;7744;52.172;10.668;2022-10-16T16:34:06;14.70;1.00
15286;DHT22;7744;52.172;10.668;2022-10-16T16:36:32;14.50;1.00
15286;DHT22;7744;52.172;10.668;2022-10-16T16:38:58;14.30;1.00
15286;DHT22;7744;52.172;10.668;2022-10-16T16:41:26;14.20;1.00
15286;DHT22;7744;52.172;10.668;2022-10-16T16:43:54;14.10;1.00
15286;DHT22;7744;52.172;10.668;2022-10-16T16:46:20;14.00;1.00
15286;DHT22;7744;52.172;10.668;2022-10-16T16:48:46;13.90;1.00
15286;DHT22;7744;52.172;10.668;2022-10-16T16:51:15;13.80;1.00
15286;DHT22;7744;52.172;10.668;2022-10-16T16:53:46;13.70;1.00
15286;DHT22;7744;52.172;10.668;2022-10-16T16:56:12;13.60;1.00
15286;DHT22;7744;52.172;10.668;2022-10-16T16:58:39;13.50;1.00
15286;DHT22;7744;52.172;10.668;2022-10-16T17:01:05;13.40;1.00
15286;DHT22;7744;52.172;10.668;2022-10-16T17:03:33;13.30;1.00
15286;DHT22;7744;52.172;10.668;2022-10-16T17:06:06;13.10;1.00
15286;DHT22;7744;52.172;10.668;2022-10-16T17:08:36;13.00;1.00
15286;DHT22;7744;52.172;10.668;2022-10-16T17:11:02;13.00;1.00
15286;DHT22;7744;52.172;10.668;2022-10-16T17:13:31;13.00;1.00
15286;DHT22;7744;52.172;10.668;2022-10-16T17:15:59;13.00;1.00
15286;DHT22;7744;52.172;10.668;2022-10-16T17:18:25;12.90;1.00
15286;DHT22;7744;52.172;10.668;2022-10-16T17:20:51;12.80;1.00
15286;DHT22;7744;52.172;10.668;2022-10-16T17:23:18;12.80;1.00
15286;DHT22;7744;52.172;10.668;2022-10-16T17:25:45;13.30;1.00
15286;DHT22;7744;52.172;10.668;2022-10-16T17:28:12;12.70;1.00
15286;DHT22;7744;52.172;10.668;2022-10-16T17:30:42;12.60;1.00